Time;durP1;ratioP1;P1;durP2;ratioP2;P2;SDS_P1;SDS_P2;PMS_P1;PMS_P2;Temp;Humidity;BMP_temperature;BMP_pressure;BME280_temperature;BME280_humidity;BME280_pressure;Samples;Min_cycle;Max_cycle;Signal;HPM_P1;HPM_P2
2021/12/24 00:00:07;;;;;;;;;;;;;;;14.78;70.58;100471.03;5042871;28;19960;-85
2021/12/24 00:02:32;;;;;;;;;;;;;;;14.98;69.90;100481.38;5041788;28;19944;-86
2021/12/24 00:04:58;;;;;;;;;;;;;;;14.80;71.80;100467.22;5042093;28;19917;-85
2021/12/24 00:07:23;;;;;;;;;;;;;;;15.35;68.53;100462.34;5042249;28;19916;-86
2021/12/24 00:09:48;;;;;;;;;;;;;;;15.86;67.25;100464.03;5043536;28;20390;-86
2021/12/24 00:12:18;;;;;;;;;;;;;;;15.11;68.20;100462.28;5043206;28;19920;-85
2021/12/24 00:14:49;;;;;;;;;;;;;;;15.36;69.34;100465.94;5042329;28;19917;-84
2021/12/24 00:17:16;;;;;;;;;;;;;;;14.68;72.01;100463.53;5061639;28;19917;-86
2021/12/24 00:19:57;;;;;;;;;;;;;;;15.76;68.53;100462.94;5043154;28;20333;-86
2021/12/24 00:36:10;;;;;;;;;;;;;;;15.64;68.41;100452.97;5059956;28;19939;-85
2021/12/24 00:38:36;;;;;;;;;;;;;;;15.35;69.50;100453.28;5040883;28;20336;-85
2021/12/24 00:41:01;;;;;;;;;;;;;;;15.22;70.66;100456.91;5059638;28;19916;-86
2021/12/24 00:43:26;;;;;;;;;;;;;;;15.37;70.59;100459.53;5042618;28;20424;-85
2021/12/24 00:45:51;;;;;;;;;;;;;;;15.84;68.58;100470.59;5042551;28;19917;-86
2021/12/24 00:48:18;;;;;;;;;;;;;;;15.10;71.61;100470.56;5041690;28;19913;-86
2021/12/24 00:51:16;;;;;;;;;;;;;;;15.57;69.44;100464.34;5040996;28;20014;-86
2021/12/24 00:56:02;;;;;;;;;;;;;;;15.68;69.18;100463.53;5058622;28;19924;-85
2021/12/24 00:58:27;;;;;;;;;;;;;;;16.29;66.93;100460.72;5040768;28;19936;-86
2021/12/24 01:00:53;;;;;;;;;;;;;;;15.27;70.65;100466.63;5040629;28;19917;-86
2021/12/24 01:03:18;;;;;;;;;;;;;;;15.35;70.53;100467.81;5058357;28;20396;-86
2021/12/24 01:05:43;;;;;;;;;;;;;;;15.65;70.53;100452.84;5041198;28;19971;-86
2021/12/24 01:08:10;;;;;;;;;;;;;;;15.83;69.01;100463.41;5041345;28;20370;-86
2021/12/24 01:10:39;;;;;;;;;;;;;;;15.57;70.23;100463.47;5039876;28;19924;-86
2021/12/24 01:13:05;;;;;;;;;;;;;;;15.77;69.13;100457.41;5067415;28;19920;-86
2021/12/24 01:15:32;;;;;;;;;;;;;;;15.70;68.76;100458.84;5061562;28;19996;-86
2021/12/24 01:18:10;;;;;;;;;;;;;;;15.54;70.06;100464.56;5060840;28;19916;-87
2021/12/24 01:20:44;;;;;;;;;;;;;;;15.93;69.25;100459.84;5061054;28;19925;-86
2021/12/24 01:23:34;;;;;;;;;;;;;;;16.00;68.02;100462.97;5060242;28;19924;-86
2021/12/24 01:26:10;;;;;;;;;;;;;;;15.01;71.77;100472.13;5063430;28;19948;-86
2021/12/24 01:44:46;;;;;;;;;;;;;;;15.35;70.14;100458.75;5078863;28;19923;-86
2021/12/24 01:47:11;;;;;;;;;;;;;;;15.46;70.14;100460.66;5061526;28;20285;-87
2021/12/24 01:49:37;;;;;;;;;;;;;;;15.00;71.50;100463.06;5061168;28;20366;-87
2021/12/24 01:52:03;;;;;;;;;;;;;;;15.36;69.96;100466.81;5078705;28;19916;-86
2021/12/24 01:54:29;;;;;;;;;;;;;;;15.16;70.08;100451.94;5060368;28;20337;-87
2021/12/24 01:56:54;;;;;;;;;;;;;;;15.38;70.05;100458.50;5059454;28;19977;-87
2021/12/24 01:59:19;;;;;;;;;;;;;;;15.68;69.59;100468.97;5060872;28;19951;-87
2021/12/24 02:01:45;;;;;;;;;;;;;;;15.31;68.90;100463.56;5074207;28;19917;-87
2021/12/24 02:04:11;;;;;;;;;;;;;;;15.84;67.61;100465.16;5093444;28;19983;-86
2021/12/24 02:06:38;;;;;;;;;;;;;;;16.03;66.15;100470.06;5070951;28;19916;-86
2021/12/24 02:09:03;;;;;;;;;;;;;;;15.53;68.38;100465.53;5084885;28;19900;-86
2021/12/24 02:11:29;;;;;;;;;;;;;;;16.18;64.67;100471.59;5083454;28;19920;-87
2021/12/24 02:13:54;;;;;;;;;;;;;;;15.58;67.52;100473.41;5063779;28;19916;-87
2021/12/24 02:29:49;;;;;;;;;;;;;;;15.46;68.92;100471.56;5081624;28;19966;-87
2021/12/24 02:32:14;;;;;;;;;;;;;;;15.68;67.67;100471.72;5062768;28;20014;-86
2021/12/24 02:34:39;;;;;;;;;;;;;;;15.16;69.21;100470.13;5062554;28;19917;-87
2021/12/24 02:37:05;;;;;;;;;;;;;;;15.63;67.92;100467.59;5062592;28;20370;-88
2021/12/24 02:39:30;;;;;;;;;;;;;;;14.84;70.49;100468.75;5063876;28;19960;-87
2021/12/24 02:41:57;;;;;;;;;;;;;;;15.51;68.55;100472.97;5082122;28;19955;-88
2021/12/24 02:44:22;;;;;;;;;;;;;;;14.73;71.12;100468.63;5064026;28;19916;-87
2021/12/24 02:54:52;;;;;;;;;;;;;;;15.73;65.67;100457.72;5081742;28;20020;-88
2021/12/24 02:57:21;;;;;;;;;;;;;;;15.50;67.88;100456.72;5062458;28;19936;-87
2021/12/24 02:59:59;;;;;;;;;;;;;;;15.32;67.27;100458.97;5063024;28;19939;-88
2021/12/24 03:02:24;;;;;;;;;;;;;;;15.12;68.83;100463.16;5063672;28;19940;-87
2021/12/24 03:04:50;;;;;;;;;;;;;;;15.20;68.41;100450.72;5063332;28;19923;-88
2021/12/24 03:07:15;;;;;;;;;;;;;;;15.37;68.27;100462.25;5062788;28;19924;-87
2021/12/24 03:09:40;;;;;;;;;;;;;;;14.78;69.14;100463.75;5061930;28;19916;-88
2021/12/24 03:12:06;;;;;;;;;;;;;;;14.79;68.99;100468.19;5062083;28;20349;-88
2021/12/24 03:14:31;;;;;;;;;;;;;;;15.38;68.04;100469.41;5062986;28;19923;-87
2021/12/24 03:16:59;;;;;;;;;;;;;;;15.54;67.25;100470.03;5079215;28;19948;-87
2021/12/24 03:19:29;;;;;;;;;;;;;;;15.02;69.14;100468.38;5062982;28;19932;-87
2021/12/24 03:22:04;;;;;;;;;;;;;;;15.07;68.80;100464.34;5080495;28;19916;-88
2021/12/24 03:26:55;;;;;;;;;;;;;;;15.31;66.72;100462.66;5080806;28;20350;-88
2021/12/24 03:29:20;;;;;;;;;;;;;;;15.55;66.50;100462.69;5079156;28;19917;-87
2021/12/24 03:31:46;;;;;;;;;;;;;;;15.24;67.03;100465.84;5063847;28;19919;-88
2021/12/24 03:34:13;;;;;;;;;;;;;;;15.13;67.84;100471.22;5062723;28;19922;-87
2021/12/24 03:36:39;;;;;;;;;;;;;;;15.09;67.65;100460.66;5061545;28;19917;-87
2021/12/24 03:39:05;;;;;;;;;;;;;;;15.31;67.09;100459.94;5080199;28;19927;-87
2021/12/24 03:41:31;;;;;;;;;;;;;;;15.13;67.89;100473.94;5079301;28;19920;-88
2021/12/24 03:43:56;;;;;;;;;;;;;;;15.34;66.71;100463.31;5062175;28;19917;-87
2021/12/24 03:46:32;;;;;;;;;;;;;;;15.52;65.98;100461.09;5061770;28;19916;-88
2021/12/24 03:49:02;;;;;;;;;;;;;;;15.58;66.32;100460.63;5062655;28;20367;-87
2021/12/24 03:51:45;;;;;;;;;;;;;;;15.18;66.84;100463.56;5062295;28;19917;-87
2021/12/24 03:56:54;;;;;;;;;;;;;;;14.94;68.08;100459.91;5081449;28;19924;-87
2021/12/24 03:59:19;;;;;;;;;;;;;;;15.02;67.83;100461.13;5061439;28;19920;-87
2021/12/24 04:01:44;;;;;;;;;;;;;;;15.57;64.73;100466.19;5061156;28;19916;-87
2021/12/24 04:04:09;;;;;;;;;;;;;;;15.46;66.79;100460.66;5061469;28;20350;-87
2021/12/24 04:06:35;;;;;;;;;;;;;;;15.26;66.49;100462.16;5062035;28;19912;-88
2021/12/24 04:09:01;;;;;;;;;;;;;;;15.55;65.81;100458.13;5061455;28;20023;-87
2021/12/24 04:11:26;;;;;;;;;;;;;;;15.38;64.82;100461.25;5078913;28;20007;-88
2021/12/24 04:13:52;;;;;;;;;;;;;;;15.29;66.39;100464.66;5061625;28;20407;-88
2021/12/24 04:16:17;;;;;;;;;;;;;;;15.06;67.15;100459.03;5060196;28;19916;-87
2021/12/24 04:19:11;;;;;;;;;;;;;;;14.98;67.31;100461.44;5060248;28;19952;-87
2021/12/24 04:27:04;;;;;;;;;;;;;;;15.72;64.53;100473.22;5079301;28;19939;-87
2021/12/24 04:29:30;;;;;;;;;;;;;;;15.12;66.17;100474.91;5059989;28;20352;-88
2021/12/24 04:32:08;;;;;;;;;;;;;;;14.94;67.41;100473.53;5059445;28;19917;-87
2021/12/24 04:34:35;;;;;;;;;;;;;;;15.25;66.18;100466.75;5059427;28;19939;-87
2021/12/24 05:02:05;;;;;;;;;;;;;;;15.85;62.27;100466.88;5067871;28;20439;-87
2021/12/24 05:04:34;;;;;;;;;;;;;;;15.59;64.21;100467.84;5073259;28;19951;-86
2021/12/24 05:07:43;;;;;;;;;;;;;;;14.98;65.14;100472.34;5047412;28;19968;-91
2021/12/24 05:09:47;;;;;;;;;;;;;;;15.00;66.37;100457.59;5056472;28;19920;-87
2021/12/24 05:12:13;;;;;;;;;;;;;;;14.82;66.68;100459.81;5041429;28;19917;-87
2021/12/24 05:14:38;;;;;;;;;;;;;;;15.29;65.08;100461.91;5041544;28;19912;-87
2021/12/24 05:17:20;;;;;;;;;;;;;;;15.03;65.78;100473.72;5041429;28;19917;-87
2021/12/24 05:22:33;;;;;;;;;;;;;;;15.27;64.57;100475.66;5059702;28;19932;-87
2021/12/24 05:24:58;;;;;;;;;;;;;;;15.20;64.37;100464.34;5041500;28;19901;-88
2021/12/24 05:27:23;;;;;;;;;;;;;;;16.18;60.70;100473.47;5041194;28;19924;-87
2021/12/24 05:29:49;;;;;;;;;;;;;;;16.27;60.56;100472.75;5039716;28;20381;-87
2021/12/24 05:32:14;;;;;;;;;;;;;;;15.99;61.89;100474.00;5041133;28;19962;-87
2021/12/24 05:34:39;;;;;;;;;;;;;;;14.95;65.18;100478.00;5058981;28;19921;-88
2021/12/24 05:37:04;;;;;;;;;;;;;;;16.17;60.90;100477.16;5043825;28;19917;-87
2021/12/24 05:39:30;;;;;;;;;;;;;;;15.19;63.15;100481.69;5051645;28;19921;-87
2021/12/24 05:41:56;;;;;;;;;;;;;;;15.53;61.98;100479.16;5064472;28;19983;-88
2021/12/24 05:44:22;;;;;;;;;;;;;;;15.50;63.33;100479.41;5064486;28;19955;-88
2021/12/24 05:46:47;;;;;;;;;;;;;;;14.91;65.03;100476.47;5063182;28;19917;-87
2021/12/24 05:49:13;;;;;;;;;;;;;;;15.02;64.36;100480.19;5063797;28;19928;-87
2021/12/24 05:51:38;;;;;;;;;;;;;;;14.94;66.30;100479.84;5063432;28;19921;-87
2021/12/24 05:54:04;;;;;;;;;;;;;;;14.88;65.91;100491.19;5064283;28;20396;-87
2021/12/24 05:56:29;;;;;;;;;;;;;;;14.91;64.87;100487.38;5064317;28;19942;-87
2021/12/24 05:58:54;;;;;;;;;;;;;;;15.20;64.51;100490.72;5063976;28;19969;-87
2021/12/24 06:01:21;;;;;;;;;;;;;;;15.83;62.18;100491.53;5063456;28;19917;-88
2021/12/24 06:03:53;;;;;;;;;;;;;;;15.35;62.74;100483.28;5063827;28;20383;-88
2021/12/24 06:06:19;;;;;;;;;;;;;;;14.42;67.29;100478.06;5078610;28;19916;-89
2021/12/24 06:08:44;;;;;;;;;;;;;;;14.71;66.07;100476.06;5062558;28;19916;-86
2021/12/24 06:11:09;;;;;;;;;;;;;;;15.29;64.64;100475.53;5063690;28;19917;-89
2021/12/24 06:13:36;;;;;;;;;;;;;;;14.89;65.46;100482.91;5065106;28;19927;-88
2021/12/24 06:16:01;;;;;;;;;;;;;;;15.28;64.13;100471.97;5082358;28;20007;-89
2021/12/24 06:18:28;;;;;;;;;;;;;;;14.53;66.39;100476.31;5081146;28;19959;-88
2021/12/24 06:20:55;;;;;;;;;;;;;;;15.31;63.10;100465.38;5063841;28;19912;-88
2021/12/24 06:23:22;;;;;;;;;;;;;;;15.12;63.60;100474.91;5064687;28;19916;-89
2021/12/24 06:25:48;;;;;;;;;;;;;;;14.57;64.97;100481.56;5063717;28;19954;-90
2021/12/24 06:28:14;;;;;;;;;;;;;;;14.42;67.21;100489.84;5064293;28;19916;-88
2021/12/24 06:30:39;;;;;;;;;;;;;;;15.40;62.01;100478.38;5063989;28;19990;-88
2021/12/24 06:33:05;;;;;;;;;;;;;;;14.62;64.85;100499.34;5064800;28;20439;-87
2021/12/24 06:35:30;;;;;;;;;;;;;;;14.64;65.49;100491.94;5064851;28;19917;-86
2021/12/24 06:37:58;;;;;;;;;;;;;;;15.22;63.27;100486.91;5063642;28;19916;-86
2021/12/24 06:40:24;;;;;;;;;;;;;;;15.87;59.10;100484.88;5081919;28;19904;-88
2021/12/24 06:42:49;;;;;;;;;;;;;;;14.66;64.48;100480.94;5065111;28;19974;-88
2021/12/24 06:45:19;;;;;;;;;;;;;;;15.23;62.16;100468.69;5061982;28;19916;-88
2021/12/24 06:47:45;;;;;;;;;;;;;;;14.41;66.41;100484.50;5063012;28;20014;-89
2021/12/24 06:50:10;;;;;;;;;;;;;;;15.47;60.61;100466.00;5063283;28;19924;-88
2021/12/24 06:52:42;;;;;;;;;;;;;;;15.16;60.56;100468.28;5064427;28;19972;-87
2021/12/24 06:55:08;;;;;;;;;;;;;;;15.49;61.17;100477.69;5063680;28;19916;-88
2021/12/24 06:57:33;;;;;;;;;;;;;;;15.21;61.43;100490.59;5062548;28;19939;-90
2021/12/24 06:59:59;;;;;;;;;;;;;;;14.83;63.48;100491.50;5063232;28;19916;-87
2021/12/24 07:02:24;;;;;;;;;;;;;;;15.83;59.38;100493.41;5063616;28;19916;-90
2021/12/24 07:04:52;;;;;;;;;;;;;;;15.05;61.02;100490.84;5063495;28;20403;-89
2021/12/24 07:07:17;;;;;;;;;;;;;;;15.10;63.30;100487.78;5063049;28;19908;-89
2021/12/24 07:09:43;;;;;;;;;;;;;;;15.02;64.16;100484.75;5063769;28;19917;-89
2021/12/24 07:12:16;;;;;;;;;;;;;;;15.11;62.86;100489.53;5062540;28;19963;-89
2021/12/24 07:14:41;;;;;;;;;;;;;;;15.36;60.67;100487.75;5080412;28;19920;-91
2021/12/24 07:17:07;;;;;;;;;;;;;;;15.37;62.33;100476.72;5062144;28;20006;-90
2021/12/24 07:19:33;;;;;;;;;;;;;;;14.96;63.56;100474.28;5065419;28;19927;-88
2021/12/24 07:22:01;;;;;;;;;;;;;;;14.61;63.88;100470.38;5064519;28;19921;-89
2021/12/24 07:24:27;;;;;;;;;;;;;;;14.84;63.17;100474.19;5062063;28;19955;-90
2021/12/24 07:26:52;;;;;;;;;;;;;;;14.73;65.14;100482.25;5078910;28;20281;-89
2021/12/24 07:29:17;;;;;;;;;;;;;;;14.70;64.34;100475.19;5062027;28;19917;-89
2021/12/24 07:31:42;;;;;;;;;;;;;;;14.94;63.51;100479.00;5061771;28;19924;-90
2021/12/24 07:34:07;;;;;;;;;;;;;;;15.18;62.33;100488.09;5061756;28;19966;-88
2021/12/24 07:36:33;;;;;;;;;;;;;;;14.54;64.35;100483.53;5079418;28;20010;-90
2021/12/24 07:38:58;;;;;;;;;;;;;;;14.70;63.12;100490.63;5061724;28;19920;-88
2021/12/24 07:41:25;;;;;;;;;;;;;;;15.50;60.91;100479.41;5060685;28;19916;-87
2021/12/24 07:43:51;;;;;;;;;;;;;;;14.44;65.02;100487.84;5061083;28;19920;-89
2021/12/24 07:46:17;;;;;;;;;;;;;;;14.84;64.46;100474.19;5079063;28;19923;-88
2021/12/24 07:48:49;;;;;;;;;;;;;;;14.37;65.07;100472.94;5061345;28;19917;-88
2021/12/24 07:54:00;;;;;;;;;;;;;;;14.27;63.96;100478.16;5080489;28;19923;-89
2021/12/24 07:56:30;;;;;;;;;;;;;;;15.01;63.55;100474.84;5062102;28;19962;-88
2021/12/24 07:58:55;;;;;;;;;;;;;;;14.73;63.96;100478.66;5062947;28;20022;-87
2021/12/24 08:01:24;;;;;;;;;;;;;;;14.13;65.54;100473.66;5080590;28;20449;-87
2021/12/24 08:03:51;;;;;;;;;;;;;;;13.95;66.48;100483.06;5074842;28;19927;-89
2021/12/24 08:06:16;;;;;;;;;;;;;;;15.49;61.82;100484.97;5078340;28;19916;-87
2021/12/24 08:08:41;;;;;;;;;;;;;;;15.51;61.64;100486.59;5095564;28;19924;-88
2021/12/24 08:11:06;;;;;;;;;;;;;;;15.02;62.27;100488.34;5060852;28;19999;-90
2021/12/24 08:13:31;;;;;;;;;;;;;;;14.86;63.26;100491.28;5062302;28;19912;-89
2021/12/24 08:15:57;;;;;;;;;;;;;;;15.31;62.08;100495.38;5063182;28;19916;-89
2021/12/24 08:18:22;;;;;;;;;;;;;;;15.12;61.70;100494.00;5063052;28;19912;-90
2021/12/24 08:20:48;;;;;;;;;;;;;;;14.97;61.04;100495.09;5064015;28;19927;-90
2021/12/24 08:23:13;;;;;;;;;;;;;;;15.06;63.98;100489.00;5063862;28;19917;-90
2021/12/24 08:25:39;;;;;;;;;;;;;;;14.80;63.63;100488.16;5064194;28;20298;-90
2021/12/24 08:28:04;;;;;;;;;;;;;;;15.33;61.13;100475.22;5066595;28;19916;-89
2021/12/24 08:30:29;;;;;;;;;;;;;;;14.50;66.59;100492.88;5064236;28;20027;-90
2021/12/24 08:32:56;;;;;;;;;;;;;;;16.01;59.95;100482.94;5063471;28;19951;-90
2021/12/24 08:35:23;;;;;;;;;;;;;;;15.42;61.51;100490.03;5063420;28;20362;-90
2021/12/24 08:37:49;;;;;;;;;;;;;;;15.95;60.61;100498.78;5062709;28;19924;-90
2021/12/24 08:40:14;;;;;;;;;;;;;;;15.49;60.96;100494.03;5061166;28;20374;-90
2021/12/24 08:42:39;;;;;;;;;;;;;;;16.45;57.35;100486.81;5061517;28;19920;-88
2021/12/24 08:45:06;;;;;;;;;;;;;;;15.47;60.22;100493.25;5060237;28;19920;-89
2021/12/24 08:47:31;;;;;;;;;;;;;;;15.50;60.18;100489.44;5061768;28;19956;-89
2021/12/24 08:49:56;;;;;;;;;;;;;;;15.82;60.71;100489.81;5061153;28;19917;-90
2021/12/24 08:52:21;;;;;;;;;;;;;;;16.32;57.52;100486.94;5060591;28;19917;-87
2021/12/24 08:54:47;;;;;;;;;;;;;;;15.28;61.51;100490.16;5078016;28;19905;-90
2021/12/24 08:57:12;;;;;;;;;;;;;;;15.57;60.54;100488.00;5060554;28;19916;-89
2021/12/24 08:59:37;;;;;;;;;;;;;;;16.17;58.97;100483.53;5059552;28;19924;-88
2021/12/24 09:02:03;;;;;;;;;;;;;;;15.06;62.15;100492.56;5061234;28;19924;-90
2021/12/24 09:04:29;;;;;;;;;;;;;;;15.16;61.95;100491.94;5061114;28;19967;-90
2021/12/24 09:06:54;;;;;;;;;;;;;;;15.24;62.54;100495.81;5061396;28;19968;-89
2021/12/24 09:09:19;;;;;;;;;;;;;;;15.29;61.58;100500.06;5060443;28;20011;-91
2021/12/24 09:11:46;;;;;;;;;;;;;;;15.83;60.27;100485.22;5060729;28;20011;-89
2021/12/24 09:14:17;;;;;;;;;;;;;;;14.54;64.39;100486.25;5060914;28;20389;-90
2021/12/24 09:16:43;;;;;;;;;;;;;;;15.18;63.80;100488.09;5061465;28;19923;-90
2021/12/24 09:19:12;;;;;;;;;;;;;;;15.50;62.35;100487.59;5060558;28;19916;-89
2021/12/24 09:21:37;;;;;;;;;;;;;;;15.94;61.03;100488.88;5061315;28;19917;-92
2021/12/24 09:24:07;;;;;;;;;;;;;;;15.79;60.23;100483.69;5063903;28;19924;-92
2021/12/24 09:26:32;;;;;;;;;;;;;;;14.89;64.13;100479.31;5064524;28;19920;-89
2021/12/24 09:29:02;;;;;;;;;;;;;;;15.64;61.21;100477.50;5068787;28;19916;-87
2021/12/24 09:31:27;;;;;;;;;;;;;;;15.49;62.25;100477.69;5068050;28;19967;-90
2021/12/24 09:33:53;;;;;;;;;;;;;;;15.80;61.20;100483.59;5069150;28;19912;-89
2021/12/24 09:36:24;;;;;;;;;;;;;;;15.53;61.65;100479.16;5061584;28;19925;-92
2021/12/24 09:38:50;;;;;;;;;;;;;;;15.31;63.06;100487.19;5063099;28;19925;-91
2021/12/24 09:41:17;;;;;;;;;;;;;;;15.57;62.27;100491.59;5044567;28;22076;-90
2021/12/24 09:43:42;;;;;;;;;;;;;;;15.89;60.25;100488.34;5062061;28;20251;-93
2021/12/24 09:46:08;;;;;;;;;;;;;;;16.04;59.87;100483.56;5060938;28;19959;-92
2021/12/24 09:48:33;;;;;;;;;;;;;;;15.62;60.82;100476.75;5060215;28;20016;-93
2021/12/24 09:50:58;;;;;;;;;;;;;;;15.51;60.42;100481.16;5061057;28;19912;-92
2021/12/24 09:53:23;;;;;;;;;;;;;;;15.50;62.12;100484.84;5059583;28;19923;-90
2021/12/24 09:55:49;;;;;;;;;;;;;;;15.06;61.97;100481.69;5059962;28;20029;-92
2021/12/24 09:58:14;;;;;;;;;;;;;;;15.81;60.39;100481.75;5059037;28;20356;-91
2021/12/24 10:00:40;;;;;;;;;;;;;;;15.83;59.57;100486.09;5061524;28;19909;-92
2021/12/24 10:03:05;;;;;;;;;;;;;;;14.80;63.82;100489.00;5061892;28;19917;-91
2021/12/24 10:05:46;;;;;;;;;;;;;;;14.98;62.88;100483.25;5059315;28;19916;-91
2021/12/24 10:08:15;;;;;;;;;;;;;;;14.91;64.31;100484.66;5078074;28;19921;-92
2021/12/24 10:10:43;;;;;;;;;;;;;;;16.02;59.92;100487.41;5059753;28;19970;-91
2021/12/24 10:13:25;;;;;;;;;;;;;;;15.44;61.30;100488.03;5060913;28;19917;-93
2021/12/24 10:15:51;;;;;;;;;;;;;;;15.60;60.09;100488.66;5057617;28;19920;-90
2021/12/24 10:18:27;;;;;;;;;;;;;;;15.64;60.96;100491.13;5064886;28;19923;-90
2021/12/24 10:21:04;;;;;;;;;;;;;;;15.63;59.72;100486.69;5063527;28;19916;-92
2021/12/24 10:23:43;;;;;;;;;;;;;;;15.82;58.67;100495.28;5065037;28;19923;-90
2021/12/24 10:26:16;;;;;;;;;;;;;;;16.43;56.88;100481.50;5064854;28;19924;-90
2021/12/24 10:28:52;;;;;;;;;;;;;;;15.64;59.77;100482.97;5068557;28;19923;-92
2021/12/24 10:31:22;;;;;;;;;;;;;;;16.26;58.38;100477.34;5062798;28;20373;-89
2021/12/24 10:34:03;;;;;;;;;;;;;;;15.77;60.34;100487.41;5064905;28;19916;-91
2021/12/24 10:36:28;;;;;;;;;;;;;;;15.32;61.04;100483.50;5066286;28;20003;-88
2021/12/24 10:38:56;;;;;;;;;;;;;;;15.85;59.18;100481.41;5064001;28;19931;-88
2021/12/24 10:41:24;;;;;;;;;;;;;;;15.84;59.49;100487.84;5063959;28;19921;-89
2021/12/24 10:43:51;;;;;;;;;;;;;;;16.32;58.53;100477.84;5062535;28;20608;-90
2021/12/24 10:46:24;;;;;;;;;;;;;;;15.85;61.11;100488.69;5063223;28;20347;-89
2021/12/24 10:49:07;;;;;;;;;;;;;;;16.35;57.39;100485.78;5063688;28;19920;-89
2021/12/24 10:51:54;;;;;;;;;;;;;;;16.33;56.26;100483.19;5062376;28;19969;-91
2021/12/24 10:54:20;;;;;;;;;;;;;;;15.14;61.94;100483.88;5053636;28;20011;-91
2021/12/24 10:56:46;;;;;;;;;;;;;;;15.08;62.89;100481.56;5062418;28;20009;-90
2021/12/24 10:59:12;;;;;;;;;;;;;;;14.49;64.47;100491.16;5062506;28;19928;-92
2021/12/24 11:01:38;;;;;;;;;;;;;;;15.13;62.72;100476.66;5064651;28;19924;-88
2021/12/24 11:04:03;;;;;;;;;;;;;;;15.19;61.83;100478.94;5088439;28;19923;-90
2021/12/24 11:06:29;;;;;;;;;;;;;;;15.62;60.78;100482.22;5066065;28;19921;-89
2021/12/24 11:08:55;;;;;;;;;;;;;;;15.30;61.61;100469.97;5071800;28;19905;-87
2021/12/24 11:11:20;;;;;;;;;;;;;;;15.14;62.49;100481.16;5073334;28;20021;-89
2021/12/24 11:13:47;;;;;;;;;;;;;;;14.72;63.50;100488.69;5070608;28;19970;-87
2021/12/24 11:16:17;;;;;;;;;;;;;;;15.55;60.91;100481.78;5068942;28;19994;-91
2021/12/24 11:18:45;;;;;;;;;;;;;;;14.79;63.71;100478.22;5067116;28;19916;-92
2021/12/24 11:21:15;;;;;;;;;;;;;;;15.64;60.79;100480.22;5065231;28;19991;-93
2021/12/24 11:23:41;;;;;;;;;;;;;;;15.42;60.10;100482.69;5066480;28;20563;-86
2021/12/24 11:26:21;;;;;;;;;;;;;;;15.30;61.01;100478.16;5063129;28;19956;-90
2021/12/24 11:28:46;;;;;;;;;;;;;;;14.52;63.91;100481.88;5065753;28;19924;-88
2021/12/24 11:31:16;;;;;;;;;;;;;;;15.10;62.42;100476.00;5065221;28;19920;-88
2021/12/24 11:33:43;;;;;;;;;;;;;;;15.54;61.22;100471.88;5065427;28;19984;-88
2021/12/24 11:36:10;;;;;;;;;;;;;;;15.24;60.23;100482.19;5067939;28;19971;-89
2021/12/24 11:38:44;;;;;;;;;;;;;;;14.97;62.93;100476.03;5062641;28;19920;-88
2021/12/24 11:41:18;;;;;;;;;;;;;;;14.91;63.23;100474.63;5072877;23;19957;-87
2021/12/24 11:43:46;;;;;;;;;;;;;;;15.65;61.20;100466.47;5047672;28;20397;-89
2021/12/24 11:46:15;;;;;;;;;;;;;;;15.85;58.87;100462.31;5042966;28;20014;-90
2021/12/24 11:48:41;;;;;;;;;;;;;;;15.15;60.73;100471.97;5065150;28;19927;-91
2021/12/24 11:51:08;;;;;;;;;;;;;;;15.35;61.63;100464.19;5045386;28;19921;-90
2021/12/24 11:53:35;;;;;;;;;;;;;;;15.80;59.74;100477.28;5041858;28;19925;-90
2021/12/24 11:56:07;;;;;;;;;;;;;;;15.86;59.46;100464.03;5042948;28;19963;-89
2021/12/24 11:58:32;;;;;;;;;;;;;;;15.97;58.65;100474.13;5040584;28;19994;-91
2021/12/24 12:01:02;;;;;;;;;;;;;;;15.65;59.40;100468.34;5041239;28;19956;-90
2021/12/24 12:03:30;;;;;;;;;;;;;;;15.09;60.98;100469.69;5057882;28;19988;-87
2021/12/24 12:05:58;;;;;;;;;;;;;;;15.14;61.92;100462.06;5057053;28;19996;-92
2021/12/24 12:08:29;;;;;;;;;;;;;;;15.84;60.16;100466.00;5040917;28;20050;-89
2021/12/24 12:11:14;;;;;;;;;;;;;;;14.89;62.47;100463.84;5038669;28;19925;-89
2021/12/24 12:13:49;;;;;;;;;;;;;;;15.55;60.96;100458.13;5040711;28;19917;-85
2021/12/24 12:16:14;;;;;;;;;;;;;;;15.16;61.81;100467.41;5042921;28;19917;-91
2021/12/24 12:18:50;;;;;;;;;;;;;;;15.53;61.61;100465.53;5043642;28;19920;-87
2021/12/24 12:21:22;;;;;;;;;;;;;;;15.82;58.84;100462.53;5046071;28;19917;-92
2021/12/24 12:26:35;;;;;;;;;;;;;;;15.30;60.93;100460.94;5065335;28;19924;-91
2021/12/24 12:29:29;;;;;;;;;;;;;;;15.31;60.85;100462.66;5068125;28;19997;-87
2021/12/24 12:32:26;;;;;;;;;;;;;;;15.45;61.49;100470.72;5030257;28;19917;-90
2021/12/24 12:35:12;;;;;;;;;;;;;;;15.73;58.70;100474.09;5061126;28;19923;-92
2021/12/24 12:37:43;;;;;;;;;;;;;;;15.44;59.74;100468.09;5044213;28;19909;-90
2021/12/24 12:40:11;;;;;;;;;;;;;;;15.62;60.46;100471.31;5041916;28;19928;-91
2021/12/24 12:42:50;;;;;;;;;;;;;;;16.11;59.00;100467.63;5041700;28;20003;-90
2021/12/24 12:45:16;;;;;;;;;;;;;;;15.76;59.07;100462.94;5039031;28;19917;-88
2021/12/24 12:47:52;;;;;;;;;;;;;;;15.37;60.95;100468.56;5040980;28;19921;-86
2021/12/24 12:50:18;;;;;;;;;;;;;;;15.58;60.18;100463.34;5031191;28;20011;-86
2021/12/24 12:52:44;;;;;;;;;;;;;;;15.52;61.86;100461.09;5043729;28;19959;-88
2021/12/24 12:55:28;;;;;;;;;;;;;;;15.86;58.75;100458.56;5043487;28;20366;-89
2021/12/24 12:58:13;;;;;;;;;;;;;;;15.54;58.87;100459.13;5042416;28;19975;-89
2021/12/24 13:00:38;;;;;;;;;;;;;;;15.55;59.05;100452.69;5044364;28;20434;-90
2021/12/24 13:05:50;;;;;;;;;;;;;;;15.92;58.76;100454.50;5059053;28;20058;-87
2021/12/24 13:08:22;;;;;;;;;;;;;;;15.73;58.67;100461.34;5041550;28;19924;-90
2021/12/24 13:10:57;;;;;;;;;;;;;;;15.91;58.79;100450.94;5041395;28;19917;-88
2021/12/24 13:13:22;;;;;;;;;;;;;;;15.83;58.19;100457.94;5040818;28;20012;-88
2021/12/24 13:15:49;;;;;;;;;;;;;;;15.73;58.59;100460.44;5038760;28;19956;-90
2021/12/24 13:18:30;;;;;;;;;;;;;;;15.57;59.18;100456.16;5038747;28;20371;-90
2021/12/24 13:23:27;;;;;;;;;;;;;;;16.47;55.97;100449.34;5057065;28;19920;-89
2021/12/24 13:25:53;;;;;;;;;;;;;;;15.69;58.01;100451.63;5038325;28;20329;-90
2021/12/24 13:28:18;;;;;;;;;;;;;;;15.87;56.71;100459.47;5040262;28;20303;-92
2021/12/24 13:30:43;;;;;;;;;;;;;;;15.80;58.29;100458.19;5039480;28;19971;-91
2021/12/24 13:33:09;;;;;;;;;;;;;;;15.55;59.74;100460.88;5058738;28;19923;-90
2021/12/24 13:35:41;;;;;;;;;;;;;;;14.86;60.54;100457.75;5040738;28;20055;-90
2021/12/24 13:38:13;;;;;;;;;;;;;;;15.31;60.08;100462.66;5040937;28;19939;-90
2021/12/24 13:40:38;;;;;;;;;;;;;;;15.40;60.21;100459.28;5058577;28;19960;-90
2021/12/24 13:43:06;;;;;;;;;;;;;;;15.67;58.56;100460.91;5058227;28;19966;-88
2021/12/24 13:45:35;;;;;;;;;;;;;;;15.42;60.04;100451.84;5060648;28;19917;-90
2021/12/24 13:48:08;;;;;;;;;;;;;;;15.06;61.35;100453.56;5060978;28;19912;-89
2021/12/24 13:56:01;;;;;;;;;;;;;;;15.28;59.45;100457.44;5083231;28;19923;-90
2021/12/24 13:58:26;;;;;;;;;;;;;;;15.67;59.11;100455.47;5068740;28;19916;-88
2021/12/24 14:00:54;;;;;;;;;;;;;;;15.51;59.51;100451.16;5067519;28;20070;-90
2021/12/24 14:03:22;;;;;;;;;;;;;;;16.01;57.52;100455.66;5066543;28;19916;-89
2021/12/24 14:05:49;;;;;;;;;;;;;;;16.57;55.53;100453.09;5071573;28;19917;-89
2021/12/24 14:08:16;;;;;;;;;;;;;;;16.26;55.10;100454.63;5072524;28;19901;-90
2021/12/24 14:10:43;;;;;;;;;;;;;;;15.93;56.77;100468.03;5080003;28;19927;-89
2021/12/24 14:13:13;;;;;;;;;;;;;;;16.05;57.31;100466.22;5081380;28;19912;-92
2021/12/24 14:18:33;;;;;;;;;;;;;;;15.28;59.62;100454.72;5088700;28;19978;-89
2021/12/24 14:23:46;;;;;;;;;;;;;;;15.68;59.22;100459.94;5052161;28;19917;-91
2021/12/24 14:26:12;;;;;;;;;;;;;;;15.77;59.10;100467.41;5065719;28;19925;-89
2021/12/24 14:28:37;;;;;;;;;;;;;;;16.16;57.47;100457.22;5065263;28;19916;-91
2021/12/24 14:31:04;;;;;;;;;;;;;;;15.55;59.26;100452.69;5066647;28;19923;-90
2021/12/24 14:33:35;;;;;;;;;;;;;;;15.49;59.91;100455.88;5066295;28;19992;-86